createdAt,value
2019-02-21T00:00:24.426Z,101014
2019-02-21T00:05:21.429Z,101004
2019-02-21T00:10:21.440Z,101007
2019-02-21T00:15:21.451Z,101010
2019-02-21T00:20:21.461Z,101010
2019-02-21T00:25:21.477Z,101016
2019-02-21T00:30:21.562Z,101017
2019-02-21T00:35:21.470Z,101019
2019-02-21T00:40:21.464Z,101017
2019-02-21T00:45:21.474Z,101017
2019-02-21T00:50:21.460Z,101018
2019-02-21T00:55:21.458Z,101028
2019-02-21T01:00:21.491Z,101020
2019-02-21T01:05:21.473Z,101023
2019-02-21T01:10:21.472Z,101027
2019-02-21T01:15:21.469Z,101018
2019-02-21T01:20:21.468Z,101027
2019-02-21T01:25:21.485Z,101040
2019-02-21T01:30:21.475Z,101028
2019-02-21T01:35:21.482Z,101030
2019-02-21T01:40:21.478Z,101033
2019-02-21T01:45:21.525Z,101040
2019-02-21T01:50:21.467Z,101025
2019-02-21T01:55:21.487Z,101026
2019-02-21T02:00:21.487Z,101015
2019-02-21T02:05:21.479Z,101004
2019-02-21T02:10:21.488Z,101003
2019-02-21T02:15:21.524Z,100987
2019-02-21T02:20:21.489Z,100996
2019-02-21T02:25:21.500Z,100984
2019-02-21T02:30:21.484Z,100990
2019-02-21T02:35:21.497Z,100987
2019-02-21T02:40:21.507Z,100982
2019-02-21T02:45:21.543Z,100983
2019-02-21T02:50:21.507Z,100975
2019-02-21T02:55:21.495Z,100986
2019-02-21T03:00:21.508Z,100978
2019-02-21T03:05:21.491Z,100978
2019-02-21T03:10:21.511Z,100975
2019-02-21T03:15:21.500Z,100978
2019-02-21T03:20:21.499Z,100978
2019-02-21T03:25:21.508Z,100981
2019-02-21T03:30:21.516Z,100982
2019-02-21T03:35:21.509Z,100983
2019-02-21T03:40:21.523Z,100983
2019-02-21T03:45:21.561Z,100986
2019-02-21T03:50:21.503Z,100990
2019-02-21T03:55:21.514Z,100994
2019-02-21T04:00:21.517Z,100991
2019-02-21T04:05:21.509Z,101009
2019-02-21T04:10:21.523Z,101015
2019-02-21T04:15:21.532Z,101016
2019-02-21T04:20:21.508Z,101016
2019-02-21T04:25:21.555Z,101009
2019-02-21T04:30:21.515Z,101013
2019-02-21T04:35:21.552Z,101009
2019-02-21T04:40:21.533Z,101011
2019-02-21T04:45:21.551Z,100998
2019-02-21T04:50:21.524Z,100990
2019-02-21T04:55:21.529Z,100993
2019-02-21T05:00:21.544Z,100997
2019-02-21T05:05:21.527Z,100991
2019-02-21T05:10:21.566Z,100991
2019-02-21T05:15:21.537Z,100997
2019-02-21T05:20:21.565Z,100995
2019-02-21T05:25:21.541Z,100996
2019-02-21T05:30:21.527Z,100998
2019-02-21T05:35:21.570Z,100991
2019-02-21T05:40:21.573Z,100996
2019-02-21T05:45:21.602Z,100995
2019-02-21T05:50:21.574Z,100989
2019-02-21T05:55:21.553Z,100984
2019-02-21T06:00:21.538Z,100980
2019-02-21T06:05:21.547Z,100977
2019-02-21T06:10:21.590Z,100979
2019-02-21T06:15:21.564Z,100986
2019-02-21T06:20:21.561Z,100993
2019-02-21T06:25:21.597Z,101000
2019-02-21T06:30:21.546Z,101000
2019-02-21T06:35:21.552Z,100988
2019-02-21T06:40:21.593Z,100987
2019-02-21T06:45:21.557Z,101007
2019-02-21T06:50:26.568Z,101009
2019-02-21T06:55:21.572Z,101014
2019-02-21T07:00:21.563Z,101018
2019-02-21T07:05:21.575Z,101002
2019-02-21T07:10:21.562Z,101018
2019-02-21T07:15:21.535Z,101025
2019-02-21T07:20:21.530Z,101013
2019-02-21T07:25:21.572Z,101019
2019-02-21T07:30:23.192Z,101020
2019-02-21T07:35:21.578Z,101014
2019-02-21T07:40:21.607Z,101017
2019-02-21T07:45:21.578Z,101022
2019-02-21T07:50:23.100Z,101034
2019-02-21T07:55:21.570Z,101038
2019-02-21T08:00:21.574Z,101041
2019-02-21T08:05:23.565Z,101035
2019-02-21T08:10:32.726Z,101048
2019-02-21T08:15:21.619Z,101041
2019-02-21T08:20:21.574Z,101047
2019-02-21T08:25:21.572Z,101048
2019-02-21T08:30:21.638Z,101045
2019-02-21T08:35:21.586Z,101037
2019-02-21T08:40:21.590Z,101036
2019-02-21T08:45:21.649Z,101040
2019-02-21T08:50:22.391Z,101053
2019-02-21T08:55:21.607Z,101060
2019-02-21T09:00:21.621Z,101053
2019-02-21T09:05:21.602Z,101061
2019-02-21T09:10:21.594Z,101057
2019-02-21T09:15:21.631Z,101049
2019-02-21T09:20:21.585Z,101064
2019-02-21T09:25:21.596Z,101077
2019-02-21T09:30:21.594Z,101075
2019-02-21T09:35:21.613Z,101070
2019-02-21T09:40:21.620Z,101068
2019-02-21T09:45:21.609Z,101076
2019-02-21T09:50:21.612Z,101076
2019-02-21T09:55:21.601Z,101076
2019-02-21T10:00:21.602Z,101064
2019-02-21T10:05:21.658Z,101072
2019-02-21T10:10:21.679Z,101078
2019-02-21T10:15:21.617Z,101075
2019-02-21T10:20:21.727Z,101086
2019-02-21T10:25:23.038Z,101075
2019-02-21T10:30:21.611Z,101071
2019-02-21T10:35:21.633Z,101075
2019-02-21T10:40:21.737Z,101064
2019-02-21T10:45:21.641Z,101055
2019-02-21T10:50:21.598Z,101062
2019-02-21T10:55:21.600Z,101058
2019-02-21T11:00:21.630Z,101043
2019-02-21T11:05:21.607Z,101043
2019-02-21T11:10:21.605Z,101037
2019-02-21T11:15:21.619Z,101030
2019-02-21T11:20:21.630Z,101019
2019-02-21T11:25:21.638Z,101012
2019-02-21T11:30:21.669Z,101018
2019-02-21T11:35:21.630Z,101014
2019-02-21T11:40:21.639Z,101010
2019-02-21T11:45:21.637Z,100989
2019-02-21T11:50:21.633Z,100980
2019-02-21T11:55:21.643Z,100968
2019-02-21T12:00:21.690Z,100966
2019-02-21T12:05:30.310Z,100964
2019-02-21T12:10:21.643Z,100962
2019-02-21T12:15:21.649Z,100958
2019-02-21T12:20:21.799Z,100964
2019-02-21T12:25:21.636Z,100960
2019-02-21T12:30:21.674Z,100965
2019-02-21T12:35:28.988Z,100956
2019-02-21T12:40:21.660Z,100958
2019-02-21T12:45:21.701Z,100930
2019-02-21T12:50:21.703Z,100929
2019-02-21T12:55:27.521Z,100932
2019-02-21T13:00:21.658Z,100939
2019-02-21T13:05:21.660Z,100935
2019-02-21T13:10:21.661Z,100927
2019-02-21T13:15:21.661Z,100929
2019-02-21T13:20:21.660Z,100934
2019-02-21T13:25:21.650Z,100955
2019-02-21T13:30:21.651Z,100941
2019-02-21T13:35:21.682Z,100947
2019-02-21T13:40:21.670Z,100949
2019-02-21T13:45:21.667Z,100946
2019-02-21T13:50:23.618Z,100954
2019-02-21T13:55:21.672Z,100955
2019-02-21T14:00:21.703Z,100951
2019-02-21T14:05:21.680Z,100961
2019-02-21T14:10:21.670Z,100959
2019-02-21T14:15:21.674Z,100952
2019-02-21T14:20:21.678Z,100946
2019-02-21T14:25:21.685Z,100934
2019-02-21T14:30:21.678Z,100931
2019-02-21T14:35:21.725Z,100938
2019-02-21T14:40:21.703Z,100947
2019-02-21T14:45:21.660Z,100931
2019-02-21T14:50:21.688Z,100941
2019-02-21T14:55:21.675Z,100936
2019-02-21T15:00:21.698Z,100937
2019-02-21T15:05:21.706Z,100939
2019-02-21T15:10:21.655Z,100935
2019-02-21T15:15:22.232Z,100937
2019-02-21T15:20:21.744Z,100936
2019-02-21T15:25:21.690Z,100943
2019-02-21T15:30:21.726Z,100935
2019-02-21T15:35:21.691Z,100943
2019-02-21T15:40:21.703Z,100937
2019-02-21T15:45:23.263Z,100939
2019-02-21T15:50:21.707Z,100935
2019-02-21T15:55:21.695Z,100940
2019-02-21T16:00:21.707Z,100953
2019-02-21T16:05:21.695Z,100948
2019-02-21T16:10:21.696Z,100954
2019-02-21T16:15:21.700Z,100957
2019-02-21T16:20:21.678Z,100959
2019-02-21T16:25:21.716Z,100980
2019-02-21T16:30:22.166Z,100983
2019-02-21T16:35:21.699Z,100985
2019-02-21T16:40:21.711Z,100983
2019-02-21T16:45:21.803Z,101004
2019-02-21T16:50:29.553Z,100994
2019-02-21T16:55:21.708Z,101000
2019-02-21T17:00:21.755Z,100998
2019-02-21T17:05:21.730Z,101004
2019-02-21T17:10:21.724Z,101009
2019-02-21T17:15:21.766Z,101009
2019-02-21T17:20:21.715Z,100998
2019-02-21T17:25:21.749Z,100999
2019-02-21T17:30:21.768Z,100999
2019-02-21T17:35:21.723Z,100998
2019-02-21T17:40:21.733Z,100996
2019-02-21T17:45:21.739Z,100999
2019-02-21T17:50:21.729Z,101000
2019-02-21T17:55:21.743Z,100993
2019-02-21T18:00:21.765Z,100993
2019-02-21T18:05:21.739Z,101004
2019-02-21T18:10:21.741Z,101001
2019-02-21T18:15:21.747Z,100995
2019-02-21T18:20:21.757Z,100995
2019-02-21T18:25:21.747Z,100987
2019-02-21T18:30:21.736Z,100994
2019-02-21T18:35:21.715Z,101000
2019-02-21T18:40:21.755Z,101002
2019-02-21T18:45:21.794Z,101006
2019-02-21T18:50:21.758Z,101004
2019-02-21T18:55:21.767Z,101005
2019-02-21T19:00:21.748Z,101008
2019-02-21T19:05:21.750Z,101002
2019-02-21T19:10:21.755Z,101005
2019-02-21T19:15:21.807Z,101005
2019-02-21T19:20:21.760Z,100997
2019-02-21T19:25:21.756Z,100998
2019-02-21T19:30:21.790Z,100994
2019-02-21T19:35:21.756Z,101004
2019-02-21T19:40:21.753Z,101001
2019-02-21T19:45:21.831Z,100998
2019-02-21T19:50:21.763Z,101008
2019-02-21T19:55:21.772Z,100996
2019-02-21T20:00:21.800Z,101001
2019-02-21T20:05:21.793Z,101003
2019-02-21T20:10:21.849Z,101015
2019-02-21T20:15:21.797Z,101019
2019-02-21T20:20:21.745Z,101014
2019-02-21T20:25:21.753Z,101027
2019-02-21T20:30:21.808Z,101030
2019-02-21T20:35:21.772Z,101032
2019-02-21T20:40:21.745Z,101028
2019-02-21T20:45:21.780Z,101023
2019-02-21T20:50:21.778Z,101016
2019-02-21T20:55:21.789Z,101018
2019-02-21T21:00:21.806Z,101020
2019-02-21T21:05:21.797Z,101033
2019-02-21T21:10:21.739Z,101039
2019-02-21T21:15:21.820Z,101041
2019-02-21T21:20:21.789Z,101036
2019-02-21T21:25:21.789Z,101027
2019-02-21T21:30:21.820Z,101040
2019-02-21T21:35:21.792Z,101043
2019-02-21T21:40:21.799Z,101049
2019-02-21T21:45:21.842Z,101055
2019-02-21T21:50:21.793Z,101061
2019-02-21T21:55:21.798Z,101056
2019-02-21T22:00:21.835Z,101057
2019-02-21T22:05:21.805Z,101060
2019-02-21T22:10:21.770Z,101068
2019-02-21T22:15:21.811Z,101064
2019-02-21T22:20:21.839Z,101055
2019-02-21T22:25:21.781Z,101051
2019-02-21T22:30:21.797Z,101055
2019-02-21T22:35:21.803Z,101045
2019-02-21T22:40:21.826Z,101048
2019-02-21T22:45:21.824Z,101061
2019-02-21T22:50:21.825Z,101070
2019-02-21T22:55:21.819Z,101068
2019-02-21T23:00:21.852Z,101066
2019-02-21T23:05:21.786Z,101078
2019-02-21T23:10:21.782Z,101069
2019-02-21T23:15:21.877Z,101077
2019-02-21T23:20:21.863Z,101068
2019-02-21T23:25:21.785Z,101077
2019-02-21T23:30:21.821Z,101074
2019-02-21T23:35:21.814Z,101080
2019-02-21T23:40:21.802Z,101091
2019-02-21T23:45:21.875Z,101081
2019-02-21T23:50:21.841Z,101101
2019-02-21T23:55:21.794Z,101094
